createdAt,value
2023-08-07T00:02:20.953Z,19.39
2023-08-07T00:04:51.003Z,19.28
2023-08-07T00:07:19.704Z,19.58
2023-08-07T00:09:47.108Z,19.50
2023-08-07T00:12:14.845Z,19.21
2023-08-07T00:14:42.313Z,19.37
2023-08-07T00:17:09.806Z,19.23
2023-08-07T00:19:37.881Z,19.29
2023-08-07T00:22:05.630Z,19.45
2023-08-07T00:24:33.101Z,19.45
2023-08-07T00:27:00.783Z,19.41
2023-08-07T00:29:28.257Z,19.08
2023-08-07T00:31:55.679Z,19.24
2023-08-07T00:34:23.607Z,19.26
2023-08-07T00:36:51.216Z,19.25
2023-08-07T00:39:18.663Z,19.48
2023-08-07T00:41:46.333Z,19.20
2023-08-07T00:44:15.035Z,19.15
2023-08-07T00:46:43.238Z,19.34
2023-08-07T00:49:13.044Z,19.49
2023-08-07T00:51:40.800Z,19.28
2023-08-07T00:54:09.609Z,19.31
2023-08-07T00:56:38.034Z,19.28
2023-08-07T00:59:05.527Z,19.19
2023-08-07T01:01:32.996Z,19.12
2023-08-07T01:04:01.407Z,19.00
2023-08-07T01:06:28.878Z,18.93
2023-08-07T01:08:56.386Z,19.01
2023-08-07T01:11:47.131Z,18.89
2023-08-07T01:14:32.154Z,18.89
2023-08-07T01:17:07.535Z,19.19
2023-08-07T01:19:35.797Z,19.09
2023-08-07T01:22:09.825Z,18.93
2023-08-07T01:24:40.326Z,19.32
2023-08-07T01:27:20.093Z,19.13
2023-08-07T01:29:51.719Z,19.15
2023-08-07T01:32:48.620Z,19.38
2023-08-07T01:35:17.576Z,19.23
2023-08-07T01:37:46.645Z,19.19
2023-08-07T01:40:14.820Z,19.16
2023-08-07T01:42:42.472Z,18.95
2023-08-07T01:45:10.483Z,19.19
2023-08-07T01:47:38.128Z,19.22
2023-08-07T01:50:07.425Z,19.03
2023-08-07T01:52:35.156Z,18.86
2023-08-07T01:55:03.010Z,18.89
2023-08-07T01:57:31.608Z,18.72
2023-08-07T01:59:59.628Z,18.91
2023-08-07T02:02:27.147Z,18.63
2023-08-07T02:04:54.936Z,18.85
2023-08-07T02:07:22.355Z,18.76
2023-08-07T02:09:49.866Z,18.94
2023-08-07T02:12:17.573Z,19.03
2023-08-07T02:14:45.019Z,18.86
2023-08-07T02:17:12.479Z,18.60
2023-08-07T02:19:40.217Z,18.91
2023-08-07T02:22:07.852Z,18.96
2023-08-07T02:24:35.436Z,18.88
2023-08-07T02:27:03.244Z,18.90
2023-08-07T02:29:31.188Z,18.93
2023-08-07T02:31:58.663Z,19.02
2023-08-07T02:34:26.410Z,18.80
2023-08-07T02:36:53.964Z,18.83
2023-08-07T02:39:22.240Z,18.95
2023-08-07T02:41:50.007Z,18.81
2023-08-07T02:44:18.696Z,18.89
2023-08-07T02:46:46.099Z,18.84
2023-08-07T02:49:13.835Z,18.94
2023-08-07T02:51:41.344Z,18.92
2023-08-07T02:54:08.824Z,18.68
2023-08-07T02:56:36.671Z,18.87
2023-08-07T02:59:04.127Z,18.94
2023-08-07T03:01:31.584Z,18.88
2023-08-07T03:03:59.672Z,18.98
2023-08-07T03:06:27.171Z,18.90
2023-08-07T03:08:54.674Z,18.98
2023-08-07T03:11:22.398Z,18.92
2023-08-07T03:13:50.558Z,18.92
2023-08-07T03:16:18.091Z,18.97
2023-08-07T03:18:46.201Z,18.89
2023-08-07T03:21:13.738Z,18.92
2023-08-07T03:23:41.476Z,18.75
2023-08-07T03:26:18.752Z,19.02
2023-08-07T03:28:50.348Z,18.65
2023-08-07T03:31:18.465Z,18.57
2023-08-07T03:33:46.692Z,18.53
2023-08-07T03:36:15.229Z,18.59
2023-08-07T03:38:43.246Z,18.61
2023-08-07T03:41:11.460Z,18.45
2023-08-07T03:43:41.090Z,18.58
2023-08-07T03:46:08.841Z,18.50
2023-08-07T03:48:37.405Z,18.75
2023-08-07T03:51:11.801Z,18.74
2023-08-07T03:53:40.063Z,18.77
2023-08-07T03:56:07.508Z,18.58
2023-08-07T03:58:35.059Z,18.60
2023-08-07T04:01:03.236Z,18.41
2023-08-07T04:03:30.972Z,18.62
2023-08-07T04:05:58.485Z,18.37
2023-08-07T04:08:25.931Z,18.52
2023-08-07T04:11:05.758Z,18.66
2023-08-07T04:13:34.387Z,18.59
2023-08-07T04:16:05.018Z,18.56
2023-08-07T04:18:33.110Z,18.48
2023-08-07T04:21:02.338Z,18.66
2023-08-07T04:23:30.063Z,18.77
2023-08-07T04:25:57.716Z,18.64
2023-08-07T04:28:25.462Z,18.62
2023-08-07T04:30:53.316Z,18.75
2023-08-07T04:33:21.903Z,18.61
2023-08-07T04:35:49.759Z,18.74
2023-08-07T04:38:18.134Z,18.84
2023-08-07T04:40:52.061Z,18.81
2023-08-07T04:43:26.100Z,18.60
2023-08-07T04:45:54.226Z,18.81
2023-08-07T04:48:23.492Z,18.49
2023-08-07T04:50:51.032Z,18.71
2023-08-07T04:53:18.490Z,18.75
2023-08-07T04:55:47.492Z,18.76
2023-08-07T04:58:15.009Z,19.01
2023-08-07T05:00:42.773Z,19.14
2023-08-07T05:03:11.701Z,19.21
2023-08-07T05:05:39.427Z,19.24
2023-08-07T05:08:07.023Z,19.41
2023-08-07T05:10:34.814Z,19.25
2023-08-07T05:13:02.306Z,19.26
2023-08-07T05:15:31.722Z,19.27
2023-08-07T05:17:59.526Z,19.49
2023-08-07T05:20:27.029Z,19.48
2023-08-07T05:22:54.657Z,19.66
2023-08-07T05:25:22.808Z,19.43
2023-08-07T05:27:50.310Z,19.84
2023-08-07T05:30:17.752Z,19.75
2023-08-07T05:32:45.500Z,19.65
2023-08-07T05:35:13.134Z,19.88
2023-08-07T05:37:40.673Z,19.91
2023-08-07T05:40:08.783Z,19.94
2023-08-07T05:42:37.278Z,19.99
2023-08-07T05:45:05.200Z,19.67
2023-08-07T05:47:34.715Z,19.86
2023-08-07T05:50:02.465Z,19.98
2023-08-07T05:52:31.736Z,20.04
2023-08-07T05:54:59.436Z,19.98
2023-08-07T05:57:26.873Z,20.07
2023-08-07T05:59:54.470Z,20.25
2023-08-07T06:02:22.230Z,20.14
2023-08-07T06:04:50.122Z,20.06
2023-08-07T06:07:17.878Z,20.33
2023-08-07T06:09:45.413Z,20.00
2023-08-07T06:12:13.395Z,20.34
2023-08-07T06:14:40.871Z,19.98
2023-08-07T06:17:08.292Z,20.19
2023-08-07T06:19:35.988Z,20.34
2023-08-07T06:22:03.543Z,20.33
2023-08-07T06:24:31.022Z,19.77
2023-08-07T06:26:58.849Z,20.04
2023-08-07T06:29:26.325Z,19.95
2023-08-07T06:31:53.879Z,20.07
2023-08-07T06:34:21.693Z,20.13
2023-08-07T06:36:49.168Z,20.35
2023-08-07T06:39:16.670Z,20.31
2023-08-07T06:41:44.351Z,20.23
2023-08-07T06:44:12.854Z,20.02
2023-08-07T06:46:40.355Z,20.22
2023-08-07T06:49:08.100Z,20.27
2023-08-07T06:51:35.610Z,20.27
2023-08-07T06:54:03.073Z,20.26
2023-08-07T06:56:31.027Z,20.39
2023-08-07T06:58:58.421Z,20.31
2023-08-07T07:01:25.831Z,20.46
2023-08-07T07:03:54.178Z,20.48
2023-08-07T07:06:22.208Z,20.54
2023-08-07T07:08:49.820Z,20.86
2023-08-07T07:11:19.000Z,20.93
2023-08-07T07:13:48.328Z,20.54
2023-08-07T07:16:16.038Z,20.45
2023-08-07T07:18:43.880Z,20.51
2023-08-07T07:21:11.356Z,20.61
2023-08-07T07:23:38.834Z,20.51
2023-08-07T07:26:06.609Z,20.64
2023-08-07T07:28:34.087Z,20.57
2023-08-07T07:31:01.762Z,20.82
2023-08-07T07:33:29.511Z,20.95
2023-08-07T07:35:56.963Z,21.14
2023-08-07T07:38:24.419Z,21.29
2023-08-07T07:40:52.069Z,21.43
2023-08-07T07:43:19.634Z,21.86
2023-08-07T07:45:47.124Z,21.75
2023-08-07T07:48:14.880Z,22.08
2023-08-07T07:50:42.417Z,22.11
2023-08-07T07:53:09.813Z,22.22
2023-08-07T07:55:39.082Z,22.20
2023-08-07T07:58:07.317Z,22.29
2023-08-07T08:00:34.800Z,22.71
2023-08-07T08:03:02.592Z,22.56
2023-08-07T08:05:30.754Z,22.50
2023-08-07T08:07:58.152Z,22.44
2023-08-07T08:10:26.714Z,22.40
2023-08-07T08:12:57.681Z,22.58
2023-08-07T08:15:26.218Z,22.50
2023-08-07T08:17:53.946Z,22.51
2023-08-07T08:20:21.543Z,22.47
2023-08-07T08:22:49.018Z,22.60
2023-08-07T08:25:18.759Z,22.51
2023-08-07T08:27:46.994Z,22.25
2023-08-07T08:30:14.524Z,22.36
2023-08-07T08:32:43.630Z,22.44
2023-08-07T08:35:11.134Z,22.62
2023-08-07T08:37:38.803Z,22.81
2023-08-07T08:40:09.116Z,22.48
2023-08-07T08:42:39.705Z,22.65
2023-08-07T08:45:10.255Z,22.42
2023-08-07T08:47:38.303Z,22.28
2023-08-07T08:50:11.020Z,22.06
2023-08-07T08:52:41.759Z,21.78
2023-08-07T08:55:10.510Z,21.88
2023-08-07T08:57:39.541Z,22.04
2023-08-07T09:00:18.931Z,21.80
2023-08-07T09:02:47.249Z,21.80
2023-08-07T09:05:16.520Z,22.02
2023-08-07T09:07:44.815Z,21.72
2023-08-07T09:10:15.131Z,21.92
2023-08-07T09:13:01.112Z,22.30
2023-08-07T09:15:31.211Z,22.48
2023-08-07T09:18:00.234Z,22.45
2023-08-07T09:20:27.911Z,22.35
2023-08-07T09:22:55.534Z,22.61
2023-08-07T09:25:34.097Z,22.68
2023-08-07T09:28:06.610Z,22.78
2023-08-07T09:30:36.703Z,23.00
2023-08-07T09:33:05.114Z,22.88
2023-08-07T09:35:33.626Z,22.60
2023-08-07T09:38:02.270Z,23.14
2023-08-07T09:40:30.759Z,23.09
2023-08-07T09:43:00.545Z,23.14
2023-08-07T09:45:30.201Z,22.93
2023-08-07T09:48:05.334Z,22.79
2023-08-07T09:50:33.737Z,23.14
2023-08-07T09:53:01.353Z,23.20
2023-08-07T09:55:28.961Z,23.41
2023-08-07T09:57:56.805Z,23.79
2023-08-07T10:00:24.347Z,23.70
2023-08-07T10:02:52.763Z,23.65
2023-08-07T10:05:20.564Z,23.51
2023-08-07T10:07:48.610Z,23.18
2023-08-07T10:10:17.129Z,23.33
2023-08-07T10:12:47.393Z,23.21
2023-08-07T10:15:16.364Z,23.28
2023-08-07T10:17:44.845Z,23.27
2023-08-07T10:20:13.418Z,23.22
2023-08-07T10:22:41.952Z,23.25
2023-08-07T10:25:10.233Z,23.10
2023-08-07T10:27:40.106Z,23.11
2023-08-07T10:30:11.830Z,23.03
2023-08-07T10:32:39.911Z,22.67
2023-08-07T10:35:07.665Z,22.61
2023-08-07T10:37:42.832Z,22.58
2023-08-07T10:40:13.731Z,22.83
2023-08-07T10:43:00.578Z,22.79
2023-08-07T10:45:30.182Z,22.92
2023-08-07T10:48:06.073Z,23.43
2023-08-07T10:50:34.960Z,23.44
2023-08-07T10:53:03.782Z,23.09
2023-08-07T10:55:47.361Z,23.13
2023-08-07T10:58:25.051Z,22.83
2023-08-07T11:00:53.706Z,22.50
2023-08-07T11:03:28.034Z,22.59
2023-08-07T11:05:59.321Z,22.90
2023-08-07T11:08:28.421Z,22.90
2023-08-07T11:10:59.300Z,23.07
2023-08-07T11:13:30.655Z,22.95
2023-08-07T11:15:58.351Z,22.83
2023-08-07T11:18:27.758Z,23.14
2023-08-07T11:20:57.234Z,22.72
2023-08-07T11:23:25.920Z,22.65
2023-08-07T11:25:55.246Z,22.63
2023-08-07T11:28:24.050Z,22.66
2023-08-07T11:30:56.512Z,22.44
2023-08-07T11:33:28.117Z,22.49
2023-08-07T11:35:55.943Z,22.38
2023-08-07T11:38:44.273Z,22.10
2023-08-07T11:41:13.953Z,21.96
2023-08-07T11:43:42.704Z,22.17
2023-08-07T11:46:12.370Z,21.79
2023-08-07T11:48:41.205Z,21.38
2023-08-07T11:51:09.207Z,21.71
2023-08-07T11:53:37.553Z,21.73
2023-08-07T11:56:07.154Z,21.64
2023-08-07T11:58:36.938Z,21.66
2023-08-07T12:01:06.400Z,21.49
2023-08-07T12:03:39.878Z,21.51
2023-08-07T12:06:08.730Z,21.56
2023-08-07T12:08:38.992Z,21.56
2023-08-07T12:11:08.977Z,21.32
2023-08-07T12:13:40.959Z,21.44
2023-08-07T12:16:16.596Z,21.33
2023-08-07T12:18:50.549Z,21.27
2023-08-07T12:21:20.628Z,21.21
2023-08-07T12:23:49.126Z,21.26
2023-08-07T12:26:16.641Z,20.98
2023-08-07T12:28:44.370Z,20.90
2023-08-07T12:31:12.250Z,20.75
2023-08-07T12:33:39.722Z,20.72
2023-08-07T12:36:20.300Z,20.72
2023-08-07T12:38:48.657Z,20.86
2023-08-07T12:43:46.625Z,20.93
2023-08-07T12:48:44.736Z,20.90
2023-08-07T12:51:12.223Z,20.70
2023-08-07T12:53:39.948Z,20.78
2023-08-07T12:56:07.682Z,21.06
2023-08-07T12:58:35.299Z,21.23
2023-08-07T13:01:03.054Z,21.63
2023-08-07T13:03:30.831Z,21.28
2023-08-07T13:05:58.426Z,21.58
2023-08-07T13:08:26.087Z,21.34
2023-08-07T13:10:53.553Z,21.20
2023-08-07T13:13:20.992Z,21.26
2023-08-07T13:15:48.674Z,21.32
2023-08-07T13:18:17.903Z,21.52
2023-08-07T13:20:45.414Z,21.43
2023-08-07T13:23:13.170Z,21.60
2023-08-07T13:25:41.309Z,21.27
2023-08-07T13:28:08.738Z,20.94
2023-08-07T13:30:37.944Z,20.62
2023-08-07T13:33:05.710Z,20.66
2023-08-07T13:35:35.774Z,20.30
2023-08-07T13:38:06.486Z,20.00
2023-08-07T13:40:34.633Z,20.20
2023-08-07T13:43:08.793Z,20.48
2023-08-07T13:45:37.945Z,20.80
2023-08-07T13:48:07.894Z,20.78
2023-08-07T13:50:35.846Z,20.55
2023-08-07T13:53:13.723Z,20.42
2023-08-07T13:55:44.713Z,20.39
2023-08-07T13:58:16.678Z,20.60
2023-08-07T14:00:45.351Z,20.64
2023-08-07T14:03:14.822Z,20.50
2023-08-07T14:05:43.268Z,20.42
2023-08-07T14:08:12.160Z,20.39
2023-08-07T14:10:42.855Z,20.21
2023-08-07T14:13:11.924Z,20.16
2023-08-07T14:15:41.325Z,20.11
2023-08-07T14:18:08.897Z,20.10
2023-08-07T14:20:44.620Z,20.14
2023-08-07T14:23:24.184Z,20.03
2023-08-07T14:25:52.017Z,20.16
2023-08-07T14:28:20.157Z,20.01
2023-08-07T14:30:52.439Z,19.97
2023-08-07T14:33:25.444Z,19.83
2023-08-07T14:35:55.439Z,20.03
2023-08-07T14:38:25.502Z,19.75
2023-08-07T14:40:56.705Z,19.54
2023-08-07T14:43:26.169Z,19.23
2023-08-07T14:45:56.198Z,19.35
2023-08-07T14:48:24.396Z,19.52
2023-08-07T14:50:53.292Z,19.52
2023-08-07T14:53:20.823Z,19.45
2023-08-07T14:55:48.786Z,19.51
2023-08-07T14:58:16.294Z,19.45
2023-08-07T15:00:43.771Z,19.26
2023-08-07T15:03:11.542Z,19.28
2023-08-07T15:05:39.107Z,19.16
2023-08-07T15:08:06.519Z,19.26
2023-08-07T15:10:35.113Z,19.47
2023-08-07T15:13:02.672Z,19.31
2023-08-07T15:15:30.147Z,19.27
2023-08-07T15:17:58.001Z,19.24
2023-08-07T15:20:26.623Z,19.47
2023-08-07T15:22:54.119Z,19.34
2023-08-07T15:25:21.904Z,19.39
2023-08-07T15:27:49.465Z,19.52
2023-08-07T15:30:17.102Z,19.45
2023-08-07T15:32:45.271Z,19.49
2023-08-07T15:35:13.028Z,19.24
2023-08-07T15:37:40.825Z,19.47
2023-08-07T15:40:09.956Z,19.61
2023-08-07T15:42:37.505Z,19.58
2023-08-07T15:45:06.226Z,19.62
2023-08-07T15:47:34.718Z,19.65
2023-08-07T15:50:03.235Z,19.64
2023-08-07T15:52:31.272Z,19.77
2023-08-07T15:54:59.370Z,19.47
2023-08-07T15:57:27.093Z,19.48
2023-08-07T15:59:54.529Z,19.41
2023-08-07T16:02:22.519Z,19.29
2023-08-07T16:04:50.509Z,19.29
2023-08-07T16:07:18.210Z,19.45
2023-08-07T16:09:45.776Z,19.36
2023-08-07T16:12:14.108Z,19.27
2023-08-07T16:14:41.988Z,19.09
2023-08-07T16:17:10.918Z,18.92
2023-08-07T16:19:39.376Z,19.07
2023-08-07T16:22:06.997Z,18.96
2023-08-07T16:24:34.955Z,19.12
2023-08-07T16:27:03.163Z,19.25
2023-08-07T16:29:31.005Z,19.31
2023-08-07T16:31:59.960Z,19.31
2023-08-07T16:34:28.357Z,19.30
2023-08-07T16:36:56.348Z,18.95
2023-08-07T16:39:24.664Z,19.00
2023-08-07T16:41:53.501Z,19.38
2023-08-07T16:44:21.719Z,19.65
2023-08-07T16:46:49.693Z,19.69
2023-08-07T16:49:18.039Z,19.56
2023-08-07T16:51:46.298Z,19.48
2023-08-07T16:54:14.391Z,19.79
2023-08-07T16:56:42.101Z,19.62
2023-08-07T16:59:11.274Z,19.81
2023-08-07T17:01:39.458Z,19.87
2023-08-07T17:04:08.441Z,19.71
2023-08-07T17:06:37.020Z,20.14
2023-08-07T17:09:04.928Z,20.12
2023-08-07T17:11:33.159Z,20.04
2023-08-07T17:14:01.579Z,20.11
2023-08-07T17:16:29.380Z,20.13
2023-08-07T17:18:57.943Z,19.90
2023-08-07T17:21:26.156Z,19.98
2023-08-07T17:23:54.150Z,19.97
2023-08-07T17:26:24.443Z,20.10
2023-08-07T17:28:58.153Z,20.21
2023-08-07T17:31:27.679Z,20.37
2023-08-07T17:33:55.265Z,20.19
2023-08-07T17:36:23.602Z,20.23
2023-08-07T17:38:52.565Z,20.33
2023-08-07T17:41:21.921Z,20.29
2023-08-07T17:43:50.533Z,20.42
2023-08-07T17:46:18.863Z,20.36
2023-08-07T17:48:46.900Z,20.46
2023-08-07T17:51:14.969Z,20.32
2023-08-07T17:53:44.695Z,20.24
2023-08-07T17:56:12.980Z,20.07
2023-08-07T17:58:40.813Z,19.93
2023-08-07T18:01:08.646Z,20.22
2023-08-07T18:03:37.151Z,20.44
2023-08-07T18:06:05.107Z,20.32
2023-08-07T18:08:35.343Z,20.44
2023-08-07T18:11:04.544Z,20.54
2023-08-07T18:13:33.173Z,20.28
2023-08-07T18:16:02.923Z,20.29
2023-08-07T18:18:31.724Z,20.03
2023-08-07T18:20:59.462Z,20.51
2023-08-07T18:23:28.096Z,20.29
2023-08-07T18:25:56.420Z,20.07
2023-08-07T18:28:24.378Z,20.04
2023-08-07T18:30:52.819Z,20.06
2023-08-07T18:33:23.297Z,19.99
2023-08-07T18:35:54.879Z,20.09
2023-08-07T18:38:23.724Z,20.00
2023-08-07T18:40:51.628Z,19.74
2023-08-07T18:43:22.271Z,20.10
2023-08-07T18:45:51.275Z,19.99
2023-08-07T18:48:19.053Z,19.87
2023-08-07T18:50:47.237Z,19.96
2023-08-07T18:53:15.439Z,20.11
2023-08-07T18:55:43.549Z,19.95
2023-08-07T18:58:12.664Z,19.97
2023-08-07T19:00:41.572Z,19.56
2023-08-07T19:03:11.582Z,20.16
2023-08-07T19:05:40.638Z,19.91
2023-08-07T19:08:09.281Z,19.51
2023-08-07T19:10:39.701Z,19.14
2023-08-07T19:13:10.310Z,19.58
2023-08-07T19:15:39.992Z,19.81
2023-08-07T19:18:09.157Z,19.54
2023-08-07T19:20:37.252Z,19.50
2023-08-07T19:23:05.556Z,19.39
2023-08-07T19:25:33.288Z,19.66
2023-08-07T19:28:01.298Z,19.75
2023-08-07T19:30:31.990Z,19.49
2023-08-07T19:33:00.646Z,19.70
2023-08-07T19:35:29.059Z,19.84
2023-08-07T19:37:56.709Z,19.40
2023-08-07T19:40:28.610Z,19.46
2023-08-07T19:42:56.719Z,19.40
2023-08-07T19:45:27.129Z,19.80
2023-08-07T19:47:56.468Z,19.63
2023-08-07T19:50:26.016Z,19.82
2023-08-07T19:52:55.913Z,19.59
2023-08-07T19:55:24.269Z,19.64
2023-08-07T19:57:52.685Z,19.61
2023-08-07T20:00:21.733Z,19.41
2023-08-07T20:02:51.061Z,19.62
2023-08-07T20:05:19.554Z,19.33
2023-08-07T20:07:47.455Z,19.27
2023-08-07T20:10:22.387Z,19.22
2023-08-07T20:12:53.406Z,19.09
2023-08-07T20:15:22.157Z,19.27
2023-08-07T20:17:50.848Z,19.33
2023-08-07T20:20:21.529Z,19.31
2023-08-07T20:22:50.305Z,18.94
2023-08-07T20:25:18.049Z,19.20
2023-08-07T20:27:46.371Z,19.14
2023-08-07T20:30:14.825Z,18.93
2023-08-07T20:32:43.110Z,18.85
2023-08-07T20:35:11.485Z,19.00
2023-08-07T20:37:39.976Z,18.88
2023-08-07T20:40:09.123Z,18.81
2023-08-07T20:42:36.915Z,18.67
2023-08-07T20:45:06.026Z,18.82
2023-08-07T20:47:34.028Z,18.97
2023-08-07T20:50:02.472Z,18.71
2023-08-07T20:52:30.956Z,18.67
2023-08-07T20:54:59.163Z,18.53
2023-08-07T20:57:26.985Z,18.93
2023-08-07T20:59:54.889Z,18.65
2023-08-07T21:02:22.407Z,18.70
2023-08-07T21:04:49.882Z,18.85
2023-08-07T21:07:18.320Z,18.49
2023-08-07T21:09:46.024Z,18.52
2023-08-07T21:12:13.515Z,18.73
2023-08-07T21:14:41.278Z,19.02
2023-08-07T21:17:08.761Z,18.93
2023-08-07T21:19:36.830Z,18.76
2023-08-07T21:22:04.752Z,18.99
2023-08-07T21:24:32.169Z,18.91
2023-08-07T21:26:59.681Z,18.73
2023-08-07T21:29:27.361Z,18.76
2023-08-07T21:31:54.788Z,18.85
2023-08-07T21:34:22.353Z,18.64
2023-08-07T21:36:50.033Z,18.54
2023-08-07T21:39:17.444Z,18.61
2023-08-07T21:41:44.866Z,18.63
2023-08-07T21:44:13.355Z,18.66
2023-08-07T21:46:40.869Z,18.50
2023-08-07T21:49:08.299Z,18.31
2023-08-07T21:51:35.938Z,18.34
2023-08-07T21:54:03.322Z,18.26
2023-08-07T21:56:30.733Z,17.90
2023-08-07T21:58:58.453Z,18.01
2023-08-07T22:01:26.884Z,17.82
2023-08-07T22:03:55.050Z,17.79
2023-08-07T22:06:22.544Z,17.93
2023-08-07T22:08:49.952Z,17.75
2023-08-07T22:11:17.737Z,17.55
2023-08-07T22:13:46.250Z,17.59
2023-08-07T22:16:13.843Z,17.87
2023-08-07T22:18:42.058Z,17.62
2023-08-07T22:21:09.512Z,17.83
2023-08-07T22:23:36.966Z,18.07
2023-08-07T22:26:04.717Z,18.00
2023-08-07T22:28:32.194Z,18.25
2023-08-07T22:30:59.539Z,17.98
2023-08-07T22:33:27.396Z,18.13
2023-08-07T22:35:54.877Z,18.06
2023-08-07T22:38:22.299Z,18.13
2023-08-07T22:40:50.184Z,18.04
2023-08-07T22:43:17.661Z,18.00
2023-08-07T22:45:50.439Z,17.76
2023-08-07T22:48:18.381Z,17.88
2023-08-07T22:50:45.833Z,17.85
2023-08-07T22:53:13.333Z,17.79
2023-08-07T22:55:41.708Z,17.84
2023-08-07T22:58:09.570Z,17.86
2023-08-07T23:00:37.532Z,18.03
2023-08-07T23:03:05.847Z,17.97
2023-08-07T23:05:33.689Z,17.92
2023-08-07T23:08:01.391Z,17.84
2023-08-07T23:10:30.043Z,17.80
2023-08-07T23:12:57.620Z,17.66
2023-08-07T23:15:25.045Z,17.58
2023-08-07T23:17:52.949Z,17.84
2023-08-07T23:20:20.459Z,17.72
2023-08-07T23:22:47.880Z,17.68
2023-08-07T23:25:16.312Z,17.65
2023-08-07T23:27:44.296Z,17.69
2023-08-07T23:30:11.972Z,17.90
2023-08-07T23:32:41.402Z,18.13
2023-08-07T23:35:09.106Z,17.89
2023-08-07T23:37:36.549Z,17.82
2023-08-07T23:40:05.233Z,18.01
2023-08-07T23:42:32.676Z,18.14
2023-08-07T23:45:00.383Z,18.07
2023-08-07T23:47:28.056Z,18.29
2023-08-07T23:49:55.497Z,18.12
2023-08-07T23:52:22.908Z,18.14
2023-08-07T23:54:50.635Z,17.86
2023-08-07T23:57:18.054Z,17.86
2023-08-07T23:59:45.982Z,18.05
